Time;durP1;ratioP1;P1;durP2;ratioP2;P2;SDS_P1;SDS_P2;PMS_P1;PMS_P2;Temp;Humidity;BMP_temperature;BMP_pressure;BME280_temperature;BME280_humidity;BME280_pressure;Samples;Min_cycle;Max_cycle;Signal;HPM_P1;HPM_P2
2022/10/19 00:02:28;;;;;;;5.63;4.80;;;;;;;-146.19;100.00;65364.44;10405337;28;20067;-84
2022/10/19 00:07:47;;;;;;;5.88;4.72;;;;;;;-146.19;100.00;65364.44;10409658;28;20049;-84
2022/10/19 00:13:07;;;;;;;5.50;4.38;;;;;;;-146.19;100.00;65364.44;10433104;28;20045;-84
2022/10/19 00:18:26;;;;;;;5.53;4.40;;;;;;;-146.19;100.00;65364.44;10390032;28;20057;-84
2022/10/19 00:23:45;;;;;;;4.93;4.35;;;;;;;-146.19;100.00;65364.44;10417220;28;20061;-84
2022/10/19 00:29:05;;;;;;;6.22;4.85;;;;;;;-146.19;100.00;65364.44;10417282;28;20100;-84
2022/10/19 00:34:25;;;;;;;5.50;4.90;;;;;;;-146.19;100.00;65364.44;10396925;28;20045;-85
2022/10/19 00:39:45;;;;;;;4.75;4.30;;;;;;;-146.19;100.00;65364.44;10391423;28;20046;-85
2022/10/19 00:45:11;;;;;;;4.90;4.35;;;;;;;-146.19;100.00;65364.44;10430457;28;20045;-85
2022/10/19 00:50:30;;;;;;;4.75;4.30;;;;;;;-146.19;100.00;65364.44;10416116;28;20041;-84
2022/10/19 00:55:49;;;;;;;5.43;4.45;;;;;;;-146.19;100.00;65364.44;10434465;28;20041;-85
2022/10/19 01:01:15;;;;;;;4.53;4.05;;;;;;;-146.19;100.00;65364.44;10414404;28;20049;-85
2022/10/19 01:06:34;;;;;;;5.18;4.40;;;;;;;-146.19;100.00;65364.44;10405309;28;20041;-85
2022/10/19 01:12:16;;;;;;;5.18;4.53;;;;;;;-146.19;100.00;65364.44;10393590;28;20485;-84
2022/10/19 01:17:50;;;;;;;4.88;4.18;;;;;;;-146.19;100.00;65364.44;10415577;28;20493;-85
2022/10/19 01:23:21;;;;;;;5.25;4.47;;;;;;;-146.19;100.00;65364.44;10376887;28;20493;-85
2022/10/19 01:28:59;;;;;;;5.15;4.32;;;;;;;-146.19;100.00;65364.44;10428358;28;20072;-84
2022/10/19 01:34:53;;;;;;;4.53;4.10;;;;;;;-146.19;100.00;65364.44;10418572;28;20037;-85
2022/10/19 01:40:27;;;;;;;4.88;4.38;;;;;;;-146.19;100.00;65364.44;10403277;28;20065;-85
2022/10/19 01:45:53;;;;;;;4.35;3.95;;;;;;;-146.19;100.00;65364.44;10416511;28;20046;-84
2022/10/19 01:51:17;;;;;;;4.78;4.15;;;;;;;-146.19;100.00;65364.44;10397003;28;20532;-84
2022/10/19 01:56:41;;;;;;;4.60;4.00;;;;;;;-146.19;100.00;65364.44;10422634;28;20052;-85
2022/10/19 02:02:02;;;;;;;4.55;4.03;;;;;;;-146.19;100.00;65364.44;10422612;28;20037;-85
2022/10/19 02:07:23;;;;;;;4.28;3.80;;;;;;;-146.19;100.00;65364.44;10408468;28;20041;-84
2022/10/19 02:12:43;;;;;;;3.92;3.53;;;;;;;-146.19;100.00;65364.44;10401919;28;20047;-85
2022/10/19 02:18:03;;;;;;;4.45;4.05;;;;;;;-146.19;100.00;65364.44;10401021;28;20049;-84
2022/10/19 02:23:24;;;;;;;4.15;3.72;;;;;;;-146.19;100.00;65364.44;10428452;28;20037;-84
2022/10/19 02:28:44;;;;;;;4.00;3.55;;;;;;;-146.19;100.00;65364.44;10406059;28;20045;-84
2022/10/19 02:34:03;;;;;;;3.78;3.47;;;;;;;-146.19;100.00;65364.44;10388973;28;20042;-84
2022/10/19 02:39:24;;;;;;;4.70;3.70;;;;;;;-146.19;100.00;65364.44;10416458;28;20064;-85
2022/10/19 02:44:49;;;;;;;4.20;3.40;;;;;;;-146.19;100.00;65364.44;10406428;28;20048;-85
2022/10/19 02:50:09;;;;;;;4.00;3.63;;;;;;;-146.19;100.00;65364.44;10412679;28;20045;-85
2022/10/19 02:55:29;;;;;;;3.70;3.40;;;;;;;-146.19;100.00;65364.44;10426100;28;20038;-85
2022/10/19 03:00:48;;;;;;;3.85;3.50;;;;;;;-146.19;100.00;65364.44;10420201;28;20037;-84
2022/10/19 03:06:08;;;;;;;3.60;3.30;;;;;;;-146.19;100.00;65364.44;10413702;28;20481;-84
2022/10/19 03:11:27;;;;;;;3.60;3.30;;;;;;;-146.19;100.00;65364.44;10416116;28;20044;-84
2022/10/19 03:16:47;;;;;;;3.60;3.30;;;;;;;-146.19;100.00;65364.44;10397751;28;20050;-84
2022/10/19 03:22:07;;;;;;;3.47;3.17;;;;;;;-146.19;100.00;65364.44;10380572;28;20405;-84
2022/10/19 03:27:26;;;;;;;3.83;3.42;;;;;;;-146.19;100.00;65364.44;10405984;28;20076;-85
2022/10/19 03:32:46;;;;;;;3.53;3.22;;;;;;;-146.19;100.00;65364.44;10406054;28;20057;-84
2022/10/19 03:38:06;;;;;;;3.72;3.40;;;;;;;-146.19;100.00;65364.44;10412812;28;20048;-84
2022/10/19 03:43:25;;;;;;;3.55;3.25;;;;;;;-146.19;100.00;65364.44;10418405;28;20042;-85
2022/10/19 03:48:45;;;;;;;3.63;3.33;;;;;;;-146.19;100.00;65364.44;10416769;28;20046;-85
2022/10/19 03:54:07;;;;;;;3.47;3.17;;;;;;;-146.19;100.00;65364.44;10399938;28;20045;-84
2022/10/19 03:59:26;;;;;;;3.53;3.20;;;;;;;-146.19;100.00;65364.44;10399399;28;20053;-85
2022/10/19 04:04:46;;;;;;;3.17;2.88;;;;;;;-146.19;100.00;65364.44;10417877;28;20055;-84
2022/10/19 04:10:05;;;;;;;3.20;2.80;;;;;;;-146.19;100.00;65364.44;10406149;28;20056;-84
2022/10/19 04:15:25;;;;;;;3.58;3.28;;;;;;;-146.19;100.00;65364.44;10390805;28;20060;-84
2022/10/19 04:20:44;;;;;;;2.97;2.78;;;;;;;-146.19;100.00;65364.44;10398114;28;20038;-84
2022/10/19 04:26:06;;;;;;;3.80;3.50;;;;;;;-146.19;100.00;65364.44;10399336;28;20083;-84
2022/10/19 04:31:26;;;;;;;3.38;3.08;;;;;;;-146.19;100.00;65364.44;10372707;28;20095;-84
2022/10/19 04:36:46;;;;;;;3.80;3.20;;;;;;;-146.19;100.00;65364.44;10387497;28;20029;-83
2022/10/19 04:42:05;;;;;;;3.92;3.30;;;;;;;-146.19;100.00;65364.44;10402937;28;20058;-83
2022/10/19 04:47:25;;;;;;;3.55;3.25;;;;;;;-146.19;100.00;65364.44;10385939;28;20041;-83
2022/10/19 04:52:44;;;;;;;5.15;3.08;;;;;;;-146.19;100.00;65364.44;10395162;28;20034;-81
2022/10/19 04:58:04;;;;;;;3.53;2.97;;;;;;;-146.19;100.00;65364.44;10393669;28;20051;-83
2022/10/19 05:03:23;;;;;;;3.58;3.15;;;;;;;-146.19;100.00;65364.44;10411971;28;20041;-83
2022/10/19 05:08:43;;;;;;;3.80;3.28;;;;;;;-146.19;100.00;65364.44;10390676;28;20447;-82
2022/10/19 05:14:02;;;;;;;5.43;3.53;;;;;;;-146.19;100.00;65364.44;10425818;28;20079;-82
2022/10/19 05:19:21;;;;;;;10.38;3.70;;;;;;;-146.19;100.00;65364.44;10386508;28;20065;-83
2022/10/19 05:24:41;;;;;;;8.50;4.22;;;;;;;-146.19;100.00;65364.44;10409237;28;20041;-83
2022/10/19 05:30:00;;;;;;;8.77;4.22;;;;;;;-146.19;100.00;65364.44;10411527;28;20061;-82
2022/10/19 05:35:20;;;;;;;10.52;4.60;;;;;;;-146.19;100.00;65364.44;10404929;28;20619;-82
2022/10/19 05:40:44;;;;;;;12.10;5.10;;;;;;;-146.19;100.00;65364.44;10412992;28;20525;-83
2022/10/19 05:46:06;;;;;;;10.93;4.88;;;;;;;-146.19;100.00;65364.44;10373286;28;20516;-83
2022/10/19 05:51:27;;;;;;;10.13;4.43;;;;;;;-146.19;100.00;65364.44;10399909;28;20041;-83
2022/10/19 05:56:47;;;;;;;7.80;4.57;;;;;;;-146.19;100.00;65364.44;10417841;28;20430;-83
2022/10/19 06:02:12;;;;;;;8.07;4.53;;;;;;;-146.19;100.00;65364.44;10410668;28;20037;-82
2022/10/19 06:07:31;;;;;;;10.63;4.78;;;;;;;-146.19;100.00;65364.44;10394702;28;20049;-82
2022/10/19 06:12:51;;;;;;;9.90;5.25;;;;;;;-146.19;100.00;65364.44;10410914;28;20045;-83
2022/10/19 06:18:11;;;;;;;6.93;4.30;;;;;;;-146.19;100.00;65364.44;10406370;28;20044;-82
2022/10/19 06:23:32;;;;;;;6.55;4.35;;;;;;;-146.19;100.00;65364.44;10410831;28;20045;-82
2022/10/19 06:28:54;;;;;;;7.70;4.35;;;;;;;-146.19;100.00;65364.44;10386105;28;20053;-83
2022/10/19 06:34:14;;;;;;;9.95;4.78;;;;;;;-146.19;100.00;65364.44;10399067;28;20045;-82
2022/10/19 06:39:33;;;;;;;8.27;4.28;;;;;;;-146.19;100.00;65364.44;10418259;28;20057;-83
2022/10/19 06:44:52;;;;;;;7.03;4.05;;;;;;;-146.19;100.00;65364.44;10403588;28;20034;-83
2022/10/19 06:50:12;;;;;;;6.75;4.10;;;;;;;-146.19;100.00;65364.44;10420341;28;20108;-82
2022/10/19 06:55:32;;;;;;;8.60;4.28;;;;;;;-146.19;100.00;65364.44;10398594;28;20042;-83
2022/10/19 07:00:56;;;;;;;6.63;3.85;;;;;;;-146.19;100.00;65364.44;10403024;28;20045;-82
2022/10/19 07:06:15;;;;;;;7.57;4.10;;;;;;;-146.19;100.00;65364.44;10411093;28;20087;-82
2022/10/19 07:11:34;;;;;;;7.13;3.95;;;;;;;-146.19;100.00;65364.44;10430193;28;20115;-82
2022/10/19 07:16:54;;;;;;;6.78;4.22;;;;;;;-146.19;100.00;65364.44;10409152;28;20042;-82
2022/10/19 07:22:14;;;;;;;57.05;22.02;;;;;;;-146.19;100.00;65364.44;10409942;28;20037;-82
2022/10/19 07:27:35;;;;;;;16.45;8.35;;;;;;;-146.19;100.00;65364.44;10400840;28;20049;-82
2022/10/19 07:32:55;;;;;;;13.85;7.80;;;;;;;-146.19;100.00;65364.44;10402444;28;20041;-82
2022/10/19 07:38:14;;;;;;;11.95;6.45;;;;;;;-146.19;100.00;65364.44;10387589;28;20400;-82
2022/10/19 07:43:34;;;;;;;11.23;5.63;;;;;;;-146.19;100.00;65364.44;10416439;28;20481;-82
2022/10/19 07:48:54;;;;;;;10.25;5.53;;;;;;;-146.19;100.00;65364.44;10402439;28;20046;-82
2022/10/19 07:54:14;;;;;;;9.23;5.00;;;;;;;-146.19;100.00;65364.44;10386724;28;20042;-82
2022/10/19 07:59:33;;;;;;;8.23;4.95;;;;;;;-146.19;100.00;65364.44;10426572;28;20067;-82
2022/10/19 08:04:52;;;;;;;8.73;4.63;;;;;;;-146.19;100.00;65364.44;10428779;28;20033;-82
2022/10/19 08:10:12;;;;;;;9.10;4.63;;;;;;;-146.19;100.00;65364.44;10394147;28;20041;-82
2022/10/19 08:15:31;;;;;;;9.30;4.70;;;;;;;-146.19;100.00;65364.44;10399976;28;20045;-82
2022/10/19 08:20:51;;;;;;;6.40;4.35;;;;;;;-146.19;100.00;65364.44;10418571;28;20052;-82
2022/10/19 08:26:11;;;;;;;7.85;4.40;;;;;;;-146.19;100.00;65364.44;10414513;28;20044;-82
2022/10/19 08:31:31;;;;;;;6.82;3.97;;;;;;;-146.19;100.00;65364.44;10413522;28;20161;-82
2022/10/19 08:36:50;;;;;;;7.78;4.03;;;;;;;-146.19;100.00;65364.44;10405789;28;20049;-81
2022/10/19 08:42:23;;;;;;;6.25;3.97;;;;;;;-146.19;100.00;65364.44;10386715;28;20611;-82
2022/10/19 08:47:54;;;;;;;9.38;4.03;;;;;;;-146.19;100.00;65364.44;10405536;28;20049;-82
2022/10/19 08:53:56;;;;;;;7.80;4.22;;;;;;;-146.19;100.00;65364.44;10426037;28;20106;-82
2022/10/19 08:59:52;;;;;;;7.00;3.85;;;;;;;-146.19;100.00;65364.44;10347575;28;20119;-82
2022/10/19 09:05:22;;;;;;;4.55;3.30;;;;;;;-146.19;100.00;65364.44;10405350;28;20034;-82
2022/10/19 09:10:43;;;;;;;5.43;3.60;;;;;;;-146.19;100.00;65364.44;10388683;28;20045;-82
2022/10/19 09:16:03;;;;;;;5.65;3.33;;;;;;;-146.19;100.00;65364.44;10398031;28;20037;-81
2022/10/19 09:21:28;;;;;;;5.43;3.58;;;;;;;-146.19;100.00;65364.44;10397419;28;20045;-82
2022/10/19 09:26:53;;;;;;;5.30;3.33;;;;;;;-146.19;100.00;65364.44;10384063;28;20124;-81
2022/10/19 09:32:19;;;;;;;5.93;3.35;;;;;;;-146.19;100.00;65364.44;10397587;28;20033;-82
2022/10/19 09:37:44;;;;;;;5.05;3.35;;;;;;;-146.19;100.00;65364.44;10411580;28;20080;-82
2022/10/19 09:43:20;;;;;;;6.07;3.20;;;;;;;-146.19;100.00;65364.44;10397095;28;20053;-82
2022/10/19 09:48:51;;;;;;;5.63;3.55;;;;;;;-146.19;100.00;65364.44;10412746;28;20120;-82
2022/10/19 09:54:32;;;;;;;5.53;3.58;;;;;;;-146.19;100.00;65364.44;10390770;28;20045;-82
2022/10/19 09:59:54;;;;;;;7.57;3.25;;;;;;;-146.19;100.00;65364.44;10404903;28;20044;-83
2022/10/19 10:05:14;;;;;;;6.65;3.38;;;;;;;-146.19;100.00;65364.44;10413349;28;20045;-82
2022/10/19 10:10:40;;;;;;;5.13;2.95;;;;;;;-146.19;100.00;65364.44;10418807;28;20045;-82
2022/10/19 10:16:03;;;;;;;4.47;2.97;;;;;;;-146.19;100.00;65364.44;10394023;28;20129;-82
2022/10/19 10:21:33;;;;;;;4.85;3.15;;;;;;;-146.19;100.00;65364.44;10408778;28;20049;-82
2022/10/19 10:26:58;;;;;;;4.85;3.17;;;;;;;-146.19;100.00;65364.44;10409796;28;20045;-82
2022/10/19 10:32:18;;;;;;;5.80;3.63;;;;;;;-146.19;100.00;65364.44;10404248;28;20481;-82
2022/10/19 10:37:40;;;;;;;7.32;3.63;;;;;;;-146.19;100.00;65364.44;10432302;28;20052;-82
2022/10/19 10:43:11;;;;;;;5.53;3.38;;;;;;;-146.19;100.00;65364.44;10394822;28;20041;-82
2022/10/19 10:48:40;;;;;;;4.90;3.30;;;;;;;-146.19;100.00;65364.44;10403267;28;20048;-82
2022/10/19 10:54:13;;;;;;;4.55;3.20;;;;;;;-146.19;100.00;65364.44;10402906;28;20044;-83
2022/10/19 10:59:39;;;;;;;5.03;3.20;;;;;;;-146.19;100.00;65364.44;10395368;28;20046;-82
2022/10/19 11:05:03;;;;;;;5.22;3.30;;;;;;;-146.19;100.00;65364.44;10400607;28;20397;-83
2022/10/19 11:10:30;;;;;;;7.45;4.05;;;;;;;-146.19;100.00;65364.44;10396214;28;20041;-82
2022/10/19 11:15:55;;;;;;;4.93;3.30;;;;;;;-146.19;100.00;65364.44;10401979;28;20045;-83
2022/10/19 11:21:20;;;;;;;4.97;2.92;;;;;;;-146.19;100.00;65364.44;10379779;28;20041;-83
2022/10/19 11:26:47;;;;;;;4.78;3.03;;;;;;;-146.19;100.00;65364.44;10388161;28;20041;-83
2022/10/19 11:32:25;;;;;;;4.55;3.15;;;;;;;-146.19;100.00;65364.44;10429121;28;20048;-82
2022/10/19 11:38:03;;;;;;;5.15;2.80;;;;;;;-146.19;100.00;65364.44;10414864;28;20033;-83
2022/10/19 11:44:00;;;;;;;3.78;2.67;;;;;;;-146.19;100.00;65364.44;10404127;28;20555;-82
2022/10/19 11:49:37;;;;;;;5.07;2.97;;;;;;;-146.19;100.00;65364.44;10414999;28;20052;-84
2022/10/19 11:55:15;;;;;;;4.65;2.97;;;;;;;-146.19;100.00;65364.44;10400077;28;20048;-82
2022/10/19 12:00:51;;;;;;;6.03;2.90;;;;;;;-146.19;100.00;65364.44;10402010;28;20497;-83
2022/10/19 12:06:24;;;;;;;3.33;2.67;;;;;;;-146.19;100.00;65364.44;10388296;28;20041;-83
2022/10/19 12:12:03;;;;;;;3.28;2.78;;;;;;;-146.19;100.00;65364.44;10414029;28;20042;-83
2022/10/19 12:17:27;;;;;;;4.65;2.72;;;;;;;-146.19;100.00;65364.44;10417843;28;20396;-83
2022/10/19 12:22:47;;;;;;;4.07;2.42;;;;;;;-146.19;100.00;65364.44;10384198;28;20543;-82
2022/10/19 12:28:10;;;;;;;4.57;2.95;;;;;;;-146.19;100.00;65364.44;10413356;28;20053;-83
2022/10/19 12:33:45;;;;;;;3.25;2.30;;;;;;;-146.19;100.00;65364.44;10413242;28;20037;-83
2022/10/19 12:39:22;;;;;;;4.03;2.30;;;;;;;-146.19;100.00;65364.44;10395426;28;20053;-83
2022/10/19 12:44:52;;;;;;;3.22;2.53;;;;;;;-146.19;100.00;65364.44;10420159;28;20045;-82
2022/10/19 12:50:11;;;;;;;2.88;2.28;;;;;;;-146.19;100.00;65364.44;10405636;28;20485;-83
2022/10/19 12:55:33;;;;;;;2.42;2.03;;;;;;;-146.19;100.00;65364.44;10383328;28;20050;-83
2022/10/19 13:01:00;;;;;;;4.13;2.55;;;;;;;-146.19;100.00;65364.44;10411074;28;20033;-83
2022/10/19 13:06:22;;;;;;;3.08;2.20;;;;;;;-146.19;100.00;65364.44;10398137;28;20045;-83
2022/10/19 13:12:14;;;;;;;2.55;2.03;;;;;;;-146.19;100.00;65364.44;10381487;28;20045;-83
2022/10/19 13:17:35;;;;;;;3.22;2.22;;;;;;;-146.19;100.00;65364.44;10429382;28;20048;-82
2022/10/19 13:22:58;;;;;;;2.58;2.10;;;;;;;-146.19;100.00;65364.44;10412151;28;20038;-83
2022/10/19 13:28:26;;;;;;;3.60;2.05;;;;;;;-146.19;100.00;65364.44;10398717;28;20041;-83
2022/10/19 13:33:47;;;;;;;2.88;2.20;;;;;;;-146.19;100.00;65364.44;10409291;28;20128;-83
2022/10/19 13:39:12;;;;;;;2.72;2.00;;;;;;;-146.19;100.00;65364.44;10415495;28;20042;-82
2022/10/19 13:44:36;;;;;;;2.55;1.80;;;;;;;-146.19;100.00;65364.44;10392075;28;20045;-83
2022/10/19 13:50:04;;;;;;;3.67;2.13;;;;;;;-146.19;100.00;65364.44;10393251;28;20079;-82
2022/10/19 13:55:45;;;;;;;3.27;1.83;;;;;;;-146.19;100.00;65364.44;10406337;28;20041;-83
2022/10/19 14:01:15;;;;;;;2.83;2.08;;;;;;;-146.19;100.00;65364.44;10418730;28;20296;-82
2022/10/19 14:06:57;;;;;;;1.77;1.60;;;;;;;-146.19;100.00;65364.44;10391366;28;20053;-82
2022/10/19 14:12:22;;;;;;;2.00;1.77;;;;;;;-146.19;100.00;65364.44;10432723;28;20045;-82
2022/10/19 14:17:42;;;;;;;2.60;1.83;;;;;;;-146.19;100.00;65364.44;10412236;28;20046;-83
2022/10/19 14:23:40;;;;;;;1.75;1.60;;;;;;;-146.19;100.00;65364.44;10431838;28;20045;-82
2022/10/19 14:28:59;;;;;;;2.30;1.92;;;;;;;-146.19;100.00;65364.44;10307017;28;20068;-82
2022/10/19 14:34:19;;;;;;;1.98;1.80;;;;;;;-146.19;100.00;65364.44;10404181;28;20100;-82
2022/10/19 14:39:38;;;;;;;2.10;1.80;;;;;;;-146.19;100.00;65364.44;10380724;28;20049;-82
2022/10/19 14:45:00;;;;;;;2.63;1.30;;;;;;;-146.19;100.00;65364.44;10397022;28;20033;-83
2022/10/19 14:50:22;;;;;;;2.08;1.10;;;;;;;-146.19;100.00;65364.44;10414154;28;20045;-83
2022/10/19 14:55:42;;;;;;;2.65;0.90;;;;;;;-146.19;100.00;65364.44;10416916;28;20045;-84
2022/10/19 15:01:01;;;;;;;1.40;1.10;;;;;;;-146.19;100.00;65364.44;10384607;28;20481;-84
2022/10/19 15:06:27;;;;;;;6.03;1.35;;;;;;;-146.19;100.00;65364.44;10389246;28;20044;-83
2022/10/19 15:11:48;;;;;;;5.60;1.20;;;;;;;-146.19;100.00;65364.44;10391301;28;20448;-82
2022/10/19 15:17:27;;;;;;;7.05;1.50;;;;;;;-146.19;100.00;65364.44;10406739;28;20045;-83
2022/10/19 15:22:47;;;;;;;5.85;1.50;;;;;;;-146.19;100.00;65364.44;10397749;28;20041;-83
2022/10/19 15:28:39;;;;;;;2.42;1.40;;;;;;;-146.19;100.00;65364.44;10385540;28;20092;-83
2022/10/19 15:34:00;;;;;;;2.67;1.50;;;;;;;-146.19;100.00;65364.44;10359756;28;20049;-82
2022/10/19 15:39:20;;;;;;;7.72;1.45;;;;;;;-146.19;100.00;65364.44;10403418;28;20050;-83
2022/10/19 15:44:42;;;;;;;4.78;1.40;;;;;;;-146.19;100.00;65364.44;10358678;28;20057;-82
2022/10/19 15:50:02;;;;;;;5.53;1.33;;;;;;;-146.19;100.00;65364.44;10364758;28;20038;-83
2022/10/19 15:55:21;;;;;;;4.95;1.40;;;;;;;-146.19;100.00;65364.44;10381691;28;20096;-82
2022/10/19 16:00:41;;;;;;;2.60;1.50;;;;;;;-146.19;100.00;65364.44;10405384;28;20501;-82
2022/10/19 16:06:00;;;;;;;5.32;1.48;;;;;;;-146.19;100.00;65364.44;10362243;28;20188;-82
2022/10/19 16:11:22;;;;;;;1.85;1.30;;;;;;;-146.19;100.00;65364.44;10397256;28;20049;-82
2022/10/19 16:16:41;;;;;;;2.55;1.40;;;;;;;-146.19;100.00;65364.44;10392440;28;20123;-84
2022/10/19 16:22:00;;;;;;;6.95;1.50;;;;;;;-146.19;100.00;65364.44;10413519;28;20099;-83
2022/10/19 16:27:20;;;;;;;4.07;1.60;;;;;;;-146.19;100.00;65364.44;10405630;28;20048;-83
2022/10/19 16:32:39;;;;;;;3.40;1.20;;;;;;;-146.19;100.00;65364.44;10417122;28;20042;-83
2022/10/19 16:37:58;;;;;;;5.93;1.30;;;;;;;-146.19;100.00;65364.44;10391647;28;20490;-83
2022/10/19 16:43:17;;;;;;;3.50;1.20;;;;;;;-146.19;100.00;65364.44;10429877;28;20052;-83
2022/10/19 16:48:37;;;;;;;3.45;1.52;;;;;;;-146.19;100.00;65364.44;10428252;28;20049;-82
2022/10/19 16:53:57;;;;;;;14.95;1.45;;;;;;;-146.19;100.00;65364.44;10408199;28;20045;-83
2022/10/19 16:59:17;;;;;;;4.38;1.30;;;;;;;-146.19;100.00;65364.44;10386527;28;20511;-82
2022/10/19 17:04:37;;;;;;;7.25;1.60;;;;;;;-146.19;100.00;65364.44;10398743;28;20045;-82
2022/10/19 17:09:57;;;;;;;4.88;1.48;;;;;;;-146.19;100.00;65364.44;10427246;28;20493;-82
2022/10/19 17:15:17;;;;;;;3.85;1.42;;;;;;;-146.19;100.00;65364.44;10375043;28;20433;-82
2022/10/19 17:20:36;;;;;;;4.85;1.20;;;;;;;-146.19;100.00;65364.44;10403695;28;20067;-84
2022/10/19 17:25:55;;;;;;;5.25;1.48;;;;;;;-146.19;100.00;65364.44;10415316;28;20110;-83
2022/10/19 17:31:15;;;;;;;4.05;1.38;;;;;;;-146.19;100.00;65364.44;10388946;28;20051;-84
2022/10/19 17:36:38;;;;;;;3.10;1.30;;;;;;;-146.19;100.00;65364.44;10413995;28;20037;-84
2022/10/19 17:42:02;;;;;;;2.65;1.20;;;;;;;-146.19;100.00;65364.44;10379395;28;20520;-83
2022/10/19 17:47:22;;;;;;;5.50;1.30;;;;;;;-146.19;100.00;65364.44;10401105;28;20050;-82
2022/10/19 17:52:41;;;;;;;2.25;1.20;;;;;;;-146.19;100.00;65364.44;10411702;28;20037;-84
2022/10/19 17:58:01;;;;;;;2.67;1.10;;;;;;;-146.19;100.00;65364.44;10422670;28;20103;-85
2022/10/19 18:03:22;;;;;;;3.85;1.40;;;;;;;-146.19;100.00;65364.44;10399131;28;20436;-85
2022/10/19 18:08:46;;;;;;;2.58;1.00;;;;;;;-146.19;100.00;65364.44;10411439;28;20049;-85
2022/10/19 18:14:07;;;;;;;1.73;1.00;;;;;;;-146.19;100.00;65364.44;10399051;28;20052;-85
2022/10/19 18:19:27;;;;;;;4.03;1.10;;;;;;;-146.19;100.00;65364.44;10434000;28;20501;-86
2022/10/19 18:24:46;;;;;;;2.30;0.80;;;;;;;-146.19;100.00;65364.44;10407353;28;20068;-86
2022/10/19 18:30:05;;;;;;;2.10;1.08;;;;;;;-146.19;100.00;65364.44;10380571;28;20045;-86
2022/10/19 18:35:25;;;;;;;2.85;1.02;;;;;;;-146.19;100.00;65364.44;10430538;28;20041;-86
2022/10/19 18:40:44;;;;;;;2.67;1.00;;;;;;;-146.19;100.00;65364.44;10410810;28;20052;-86
2022/10/19 18:46:03;;;;;;;1.88;1.00;;;;;;;21.80;58.01;97854.84;10417880;28;20045;-82
2022/10/19 18:51:23;;;;;;;3.10;1.10;;;;;;;21.82;57.94;97841.78;10417981;28;20129;-84
2022/10/19 18:56:42;;;;;;;1.58;1.10;;;;;;;21.84;57.93;97851.19;10413813;28;20037;-85
2022/10/19 19:02:02;;;;;;;4.70;1.10;;;;;;;21.90;57.75;97847.22;10416962;28;20047;-81
2022/10/19 19:07:21;;;;;;;2.35;1.10;;;;;;;21.94;57.73;97828.41;10401798;28;20045;-81
2022/10/19 19:12:41;;;;;;;2.38;1.08;;;;;;;21.97;57.96;97835.88;10416614;28;20042;-81
2022/10/19 19:18:01;;;;;;;4.03;1.10;;;;;;;21.98;58.14;97826.66;10431478;28;20492;-81
2022/10/19 19:23:22;;;;;;;2.83;1.20;;;;;;;22.03;58.42;97826.53;10429779;28;20050;-81
2022/10/19 19:28:42;;;;;;;3.22;1.10;;;;;;;22.07;58.30;97823.94;10430052;28;20053;-82
2022/10/19 19:34:01;;;;;;;2.70;1.20;;;;;;;22.09;58.50;97829.84;10388300;28;20050;-82
2022/10/19 19:39:21;;;;;;;2.50;1.10;;;;;;;22.09;58.41;97819.00;10386744;28;20091;-82
2022/10/19 19:44:41;;;;;;;4.70;1.30;;;;;;;22.13;58.61;97822.72;10426540;28;20061;-81
2022/10/19 19:50:00;;;;;;;2.03;1.15;;;;;;;22.15;58.46;97817.75;10389746;28;20409;-82
2022/10/19 19:55:19;;;;;;;2.15;1.10;;;;;;;22.19;58.49;97813.28;10392065;28;20050;-83
2022/10/19 20:00:38;;;;;;;2.03;1.13;;;;;;;22.21;58.45;97823.81;10393191;28;20049;-83
2022/10/19 20:06:01;;;;;;;3.60;1.17;;;;;;;22.24;58.70;97825.91;10393524;28;20037;-83
2022/10/19 20:11:22;;;;;;;4.55;1.20;;;;;;;22.25;58.88;97824.84;10401519;28;20062;-84
2022/10/19 20:16:42;;;;;;;1.67;1.15;;;;;;;22.28;58.59;97822.25;10400796;28;20052;-84
2022/10/19 20:22:03;;;;;;;2.95;1.27;;;;;;;22.30;58.90;97820.03;10413666;28;20045;-83
2022/10/19 20:27:22;;;;;;;2.83;1.30;;;;;;;22.32;58.68;97830.56;10406949;28;20057;-83
2022/10/19 20:32:43;;;;;;;2.92;1.10;;;;;;;22.37;58.74;97832.34;10427051;28;20090;-84
2022/10/19 20:38:03;;;;;;;1.70;0.90;;;;;;;22.37;58.84;97830.44;10388336;28;20041;-83
2022/10/19 20:43:22;;;;;;;2.67;1.27;;;;;;;22.40;58.87;97826.28;10431737;28;20050;-83
2022/10/19 20:48:42;;;;;;;1.77;1.02;;;;;;;22.41;58.76;97834.09;10385237;28;20045;-83
2022/10/19 20:54:04;;;;;;;2.38;1.00;;;;;;;22.44;58.77;97836.19;10400875;28;20098;-83
2022/10/19 20:59:26;;;;;;;2.92;1.17;;;;;;;22.45;58.63;97826.94;10401525;28;20544;-83
2022/10/19 21:04:45;;;;;;;2.47;1.00;;;;;;;22.47;58.71;97829.31;10398450;28;20042;-83
2022/10/19 21:10:05;;;;;;;3.33;0.95;;;;;;;22.48;58.55;97826.31;10382458;28;20044;-83
2022/10/19 21:15:25;;;;;;;1.00;0.88;;;;;;;22.50;58.49;97828.69;10411866;28;20104;-83
2022/10/19 21:20:44;;;;;;;2.05;1.10;;;;;;;22.49;58.59;97825.16;10405653;28;20041;-83
2022/10/19 21:26:03;;;;;;;6.07;1.10;;;;;;;22.51;58.62;97833.00;10397170;28;20091;-83
2022/10/19 21:31:24;;;;;;;1.73;1.02;;;;;;;22.51;58.61;97833.00;10382983;28;20581;-83
2022/10/19 21:36:44;;;;;;;3.28;1.00;;;;;;;22.52;58.19;97826.44;10385229;28;20037;-83
2022/10/19 21:42:03;;;;;;;1.38;1.00;;;;;;;22.52;58.62;97821.00;10400151;28;20107;-83
2022/10/19 21:47:22;;;;;;;2.45;1.20;;;;;;;22.51;58.53;97819.41;10401030;28;20048;-83
2022/10/19 21:52:42;;;;;;;1.48;0.90;;;;;;;22.52;58.51;97829.16;10437741;28;20103;-83
2022/10/19 21:58:03;;;;;;;2.47;1.05;;;;;;;22.53;58.65;97830.75;10392097;28;20123;-83
2022/10/19 22:03:22;;;;;;;3.10;1.10;;;;;;;22.51;58.32;97819.41;10399556;28;20037;-83
2022/10/19 22:08:45;;;;;;;1.67;1.17;;;;;;;22.52;58.34;97818.28;10420359;28;20053;-84
2022/10/19 22:14:04;;;;;;;1.35;0.80;;;;;;;22.50;58.49;97807.78;10405142;28;20046;-83
2022/10/19 22:19:25;;;;;;;2.80;1.20;;;;;;;22.51;58.39;97812.06;10400582;28;20041;-84
2022/10/19 22:24:44;;;;;;;2.53;0.93;;;;;;;22.50;58.34;97802.34;10417936;28;20076;-83
2022/10/19 22:30:04;;;;;;;1.98;0.75;;;;;;;22.50;58.53;97796.09;10418268;28;20048;-84
2022/10/19 22:35:23;;;;;;;1.98;1.08;;;;;;;22.48;58.51;97809.19;10398691;28;20046;-84
2022/10/19 22:40:43;;;;;;;1.73;1.00;;;;;;;22.48;58.51;97803.75;10396228;28;20108;-83
2022/10/19 22:52:56;;;;;;;1.67;1.10;;;;;;;22.47;58.30;97802.19;10425650;28;20496;-83
2022/10/19 22:58:16;;;;;;;1.30;0.95;;;;;;;22.46;58.31;97795.94;10403156;28;20041;-83
2022/10/19 23:03:38;;;;;;;1.15;0.80;;;;;;;22.45;58.44;97804.41;10430443;28;20045;-83
2022/10/19 23:08:57;;;;;;;1.92;0.88;;;;;;;22.45;58.36;97793.56;10397321;28;20049;-83
2022/10/19 23:14:16;;;;;;;2.05;1.02;;;;;;;22.42;58.45;97788.75;10414914;28;20493;-83
2022/10/19 23:19:36;;;;;;;1.35;0.77;;;;;;;22.41;58.50;97787.97;10416083;28;20041;-83
2022/10/19 23:24:55;;;;;;;2.03;1.17;;;;;;;22.40;58.34;97786.34;10403220;28;20041;-83
2022/10/19 23:30:14;;;;;;;1.10;0.90;;;;;;;22.41;58.61;97787.16;10408799;28;20045;-83
2022/10/19 23:35:33;;;;;;;1.63;1.00;;;;;;;22.38;58.29;97780.44;10432724;28;20037;-83
2022/10/19 23:40:53;;;;;;;1.10;0.90;;;;;;;22.37;58.44;97781.56;10394949;28;20049;-83
2022/10/19 23:46:13;;;;;;;0.80;0.80;;;;;;;22.36;58.33;97788.09;10387923;28;20042;-83
2022/10/19 23:51:32;;;;;;;1.10;0.90;;;;;;;22.35;58.39;97772.94;10395033;28;20413;-83
2022/10/19 23:56:52;;;;;;;1.52;0.90;;;;;;;22.34;58.33;97767.81;10387153;28;20049;-83
